sensor_id;sensor_type;location;lat;lon;timestamp;P1;durP1;ratioP1;P2;durP2;ratioP2
36259;SDS011;22296;50.824;5.644;2023-02-03T00:02:07;2.20;;;1.10;;
36259;SDS011;22296;50.824;5.644;2023-02-03T00:04:34;2.05;;;1.10;;
36259;SDS011;22296;50.824;5.644;2023-02-03T00:07:01;2.90;;;1.30;;
36259;SDS011;22296;50.824;5.644;2023-02-03T00:09:28;3.25;;;1.40;;
36259;SDS011;22296;50.824;5.644;2023-02-03T00:11:56;2.22;;;1.23;;
36259;SDS011;22296;50.824;5.644;2023-02-03T00:14:23;3.55;;;1.40;;
36259;SDS011;22296;50.824;5.644;2023-02-03T00:16:49;2.30;;;1.08;;
36259;SDS011;22296;50.824;5.644;2023-02-03T00:19:16;3.92;;;1.33;;
36259;SDS011;22296;50.824;5.644;2023-02-03T00:21:43;2.97;;;1.40;;
36259;SDS011;22296;50.824;5.644;2023-02-03T00:24:10;3.50;;;1.20;;
36259;SDS011;22296;50.824;5.644;2023-02-03T00:26:41;2.08;;;1.13;;
36259;SDS011;22296;50.824;5.644;2023-02-03T00:29:08;2.50;;;1.00;;
36259;SDS011;22296;50.824;5.644;2023-02-03T00:31:36;2.30;;;1.10;;
36259;SDS011;22296;50.824;5.644;2023-02-03T00:34:04;2.95;;;1.35;;
36259;SDS011;22296;50.824;5.644;2023-02-03T00:36:31;2.25;;;1.35;;
36259;SDS011;22296;50.824;5.644;2023-02-03T00:39:01;2.90;;;1.25;;
36259;SDS011;22296;50.824;5.644;2023-02-03T00:41:29;1.88;;;1.00;;
36259;SDS011;22296;50.824;5.644;2023-02-03T00:43:57;2.10;;;1.13;;
36259;SDS011;22296;50.824;5.644;2023-02-03T00:46:24;3.92;;;1.30;;
36259;SDS011;22296;50.824;5.644;2023-02-03T00:48:51;2.95;;;1.20;;
36259;SDS011;22296;50.824;5.644;2023-02-03T00:51:18;1.35;;;1.10;;
36259;SDS011;22296;50.824;5.644;2023-02-03T00:53:45;2.40;;;1.13;;
36259;SDS011;22296;50.824;5.644;2023-02-03T00:56:13;4.15;;;1.85;;
36259;SDS011;22296;50.824;5.644;2023-02-03T00:58:40;2.55;;;1.25;;
36259;SDS011;22296;50.824;5.644;2023-02-03T01:01:07;2.58;;;1.02;;
36259;SDS011;22296;50.824;5.644;2023-02-03T01:03:35;1.83;;;1.10;;
36259;SDS011;22296;50.824;5.644;2023-02-03T01:06:09;1.67;;;0.80;;
36259;SDS011;22296;50.824;5.644;2023-02-03T01:08:41;3.55;;;1.35;;
36259;SDS011;22296;50.824;5.644;2023-02-03T01:11:10;2.75;;;1.30;;
36259;SDS011;22296;50.824;5.644;2023-02-03T01:13:39;2.85;;;1.35;;
36259;SDS011;22296;50.824;5.644;2023-02-03T01:16:14;2.33;;;1.10;;
36259;SDS011;22296;50.824;5.644;2023-02-03T01:18:42;4.10;;;1.40;;
36259;SDS011;22296;50.824;5.644;2023-02-03T01:21:10;4.32;;;1.15;;
36259;SDS011;22296;50.824;5.644;2023-02-03T01:23:39;2.38;;;0.80;;
36259;SDS011;22296;50.824;5.644;2023-02-03T01:26:09;1.85;;;1.05;;
36259;SDS011;22296;50.824;5.644;2023-02-03T01:28:38;2.75;;;1.35;;
36259;SDS011;22296;50.824;5.644;2023-02-03T01:31:10;2.92;;;1.20;;
36259;SDS011;22296;50.824;5.644;2023-02-03T01:33:39;2.92;;;0.90;;
36259;SDS011;22296;50.824;5.644;2023-02-03T01:36:07;2.83;;;1.10;;
36259;SDS011;22296;50.824;5.644;2023-02-03T01:38:36;2.55;;;1.25;;
36259;SDS011;22296;50.824;5.644;2023-02-03T01:41:04;3.15;;;1.30;;
36259;SDS011;22296;50.824;5.644;2023-02-03T01:46:05;3.95;;;1.10;;
36259;SDS011;22296;50.824;5.644;2023-02-03T01:48:42;1.77;;;0.90;;
36259;SDS011;22296;50.824;5.644;2023-02-03T01:51:10;4.40;;;1.45;;
36259;SDS011;22296;50.824;5.644;2023-02-03T01:53:37;2.47;;;1.00;;
36259;SDS011;22296;50.824;5.644;2023-02-03T01:56:04;3.78;;;1.48;;
36259;SDS011;22296;50.824;5.644;2023-02-03T01:58:34;4.50;;;1.30;;
36259;SDS011;22296;50.824;5.644;2023-02-03T02:01:05;1.92;;;0.98;;
36259;SDS011;22296;50.824;5.644;2023-02-03T02:03:37;3.95;;;1.02;;
36259;SDS011;22296;50.824;5.644;2023-02-03T02:06:12;2.50;;;1.38;;
36259;SDS011;22296;50.824;5.644;2023-02-03T02:08:40;1.73;;;0.80;;
36259;SDS011;22296;50.824;5.644;2023-02-03T02:11:11;1.08;;;0.85;;
36259;SDS011;22296;50.824;5.644;2023-02-03T02:13:39;1.95;;;0.95;;
36259;SDS011;22296;50.824;5.644;2023-02-03T02:24:51;1.42;;;0.80;;
36259;SDS011;22296;50.824;5.644;2023-02-03T02:33:07;2.97;;;1.10;;
36259;SDS011;22296;50.824;5.644;2023-02-03T02:35:57;3.45;;;1.10;;
36259;SDS011;22296;50.824;5.644;2023-02-03T02:38:37;2.40;;;1.10;;
36259;SDS011;22296;50.824;5.644;2023-02-03T02:41:18;2.17;;;1.00;;
36259;SDS011;22296;50.824;5.644;2023-02-03T02:46:40;2.25;;;1.10;;
36259;SDS011;22296;50.824;5.644;2023-02-03T02:49:14;3.13;;;1.15;;
36259;SDS011;22296;50.824;5.644;2023-02-03T02:51:45;1.73;;;1.00;;
36259;SDS011;22296;50.824;5.644;2023-02-03T02:54:17;1.33;;;0.77;;
36259;SDS011;22296;50.824;5.644;2023-02-03T02:56:51;3.25;;;1.35;;
36259;SDS011;22296;50.824;5.644;2023-02-03T02:59:22;1.83;;;1.08;;
36259;SDS011;22296;50.824;5.644;2023-02-03T03:01:49;2.83;;;1.10;;
36259;SDS011;22296;50.824;5.644;2023-02-03T03:04:18;2.83;;;1.13;;
36259;SDS011;22296;50.824;5.644;2023-02-03T03:06:54;2.53;;;1.00;;
36259;SDS011;22296;50.824;5.644;2023-02-03T03:09:51;2.33;;;1.17;;
36259;SDS011;22296;50.824;5.644;2023-02-03T03:12:31;1.80;;;1.13;;
36259;SDS011;22296;50.824;5.644;2023-02-03T03:15:03;1.98;;;1.00;;
36259;SDS011;22296;50.824;5.644;2023-02-03T03:17:39;2.13;;;1.00;;
36259;SDS011;22296;50.824;5.644;2023-02-03T03:20:10;1.48;;;0.90;;
36259;SDS011;22296;50.824;5.644;2023-02-03T03:22:46;1.98;;;1.00;;
36259;SDS011;22296;50.824;5.644;2023-02-03T03:25:18;2.75;;;1.20;;
36259;SDS011;22296;50.824;5.644;2023-02-03T03:27:48;2.65;;;0.75;;
36259;SDS011;22296;50.824;5.644;2023-02-03T03:30:21;1.45;;;0.88;;
36259;SDS011;22296;50.824;5.644;2023-02-03T03:32:52;2.83;;;1.13;;
36259;SDS011;22296;50.824;5.644;2023-02-03T03:35:19;3.65;;;1.08;;
36259;SDS011;22296;50.824;5.644;2023-02-03T03:37:49;1.30;;;1.00;;
36259;SDS011;22296;50.824;5.644;2023-02-03T03:40:28;1.73;;;0.95;;
36259;SDS011;22296;50.824;5.644;2023-02-03T03:43:15;1.92;;;0.80;;
36259;SDS011;22296;50.824;5.644;2023-02-03T03:48:51;2.60;;;1.02;;
36259;SDS011;22296;50.824;5.644;2023-02-03T03:51:27;2.08;;;1.02;;
36259;SDS011;22296;50.824;5.644;2023-02-03T03:54:16;1.58;;;0.77;;
36259;SDS011;22296;50.824;5.644;2023-02-03T03:59:29;1.88;;;0.90;;
36259;SDS011;22296;50.824;5.644;2023-02-03T04:01:58;3.47;;;1.10;;
36259;SDS011;22296;50.824;5.644;2023-02-03T04:04:33;2.85;;;1.20;;
36259;SDS011;22296;50.824;5.644;2023-02-03T04:07:02;2.63;;;1.00;;
36259;SDS011;22296;50.824;5.644;2023-02-03T04:09:30;3.65;;;1.00;;
36259;SDS011;22296;50.824;5.644;2023-02-03T04:11:57;1.83;;;0.73;;
36259;SDS011;22296;50.824;5.644;2023-02-03T04:16:55;1.38;;;0.82;;
36259;SDS011;22296;50.824;5.644;2023-02-03T04:19:23;1.90;;;0.73;;
36259;SDS011;22296;50.824;5.644;2023-02-03T04:21:50;1.90;;;1.00;;
36259;SDS011;22296;50.824;5.644;2023-02-03T04:24:18;2.13;;;1.00;;
36259;SDS011;22296;50.824;5.644;2023-02-03T04:26:45;3.15;;;1.00;;
36259;SDS011;22296;50.824;5.644;2023-02-03T04:29:12;2.47;;;0.80;;
36259;SDS011;22296;50.824;5.644;2023-02-03T04:31:39;2.55;;;1.02;;
36259;SDS011;22296;50.824;5.644;2023-02-03T04:34:06;1.92;;;0.90;;
36259;SDS011;22296;50.824;5.644;2023-02-03T04:36:33;2.60;;;1.00;;
36259;SDS011;22296;50.824;5.644;2023-02-03T04:39:03;1.85;;;0.80;;
36259;SDS011;22296;50.824;5.644;2023-02-03T04:41:30;2.20;;;0.98;;
36259;SDS011;22296;50.824;5.644;2023-02-03T04:43:56;2.55;;;0.80;;
36259;SDS011;22296;50.824;5.644;2023-02-03T04:46:23;3.60;;;0.80;;
36259;SDS011;22296;50.824;5.644;2023-02-03T04:48:50;1.50;;;0.68;;
36259;SDS011;22296;50.824;5.644;2023-02-03T04:51:17;2.65;;;0.88;;
36259;SDS011;22296;50.824;5.644;2023-02-03T04:53:44;1.60;;;0.98;;
36259;SDS011;22296;50.824;5.644;2023-02-03T04:56:11;2.25;;;0.80;;
36259;SDS011;22296;50.824;5.644;2023-02-03T04:58:38;3.35;;;0.90;;
36259;SDS011;22296;50.824;5.644;2023-02-03T05:01:06;2.47;;;0.93;;
36259;SDS011;22296;50.824;5.644;2023-02-03T05:03:34;1.90;;;1.00;;
36259;SDS011;22296;50.824;5.644;2023-02-03T05:06:02;2.33;;;0.75;;
36259;SDS011;22296;50.824;5.644;2023-02-03T05:08:29;2.88;;;0.80;;
36259;SDS011;22296;50.824;5.644;2023-02-03T05:10:56;1.85;;;1.00;;
36259;SDS011;22296;50.824;5.644;2023-02-03T05:13:26;2.10;;;0.80;;
36259;SDS011;22296;50.824;5.644;2023-02-03T05:15:53;2.17;;;1.00;;
36259;SDS011;22296;50.824;5.644;2023-02-03T05:18:20;3.38;;;1.10;;
36259;SDS011;22296;50.824;5.644;2023-02-03T05:20:47;2.05;;;0.93;;
36259;SDS011;22296;50.824;5.644;2023-02-03T05:23:13;4.25;;;1.80;;
36259;SDS011;22296;50.824;5.644;2023-02-03T05:25:42;1.77;;;0.95;;
36259;SDS011;22296;50.824;5.644;2023-02-03T05:28:09;2.28;;;1.33;;
36259;SDS011;22296;50.824;5.644;2023-02-03T05:30:36;3.55;;;1.10;;
36259;SDS011;22296;50.824;5.644;2023-02-03T05:33:03;4.28;;;1.10;;
36259;SDS011;22296;50.824;5.644;2023-02-03T05:35:30;2.95;;;1.10;;
36259;SDS011;22296;50.824;5.644;2023-02-03T05:37:57;2.45;;;0.95;;
36259;SDS011;22296;50.824;5.644;2023-02-03T05:40:24;3.97;;;1.02;;
36259;SDS011;22296;50.824;5.644;2023-02-03T05:43:10;3.70;;;0.80;;
36259;SDS011;22296;50.824;5.644;2023-02-03T05:45:37;2.50;;;1.15;;
36259;SDS011;22296;50.824;5.644;2023-02-03T05:48:05;3.10;;;0.65;;
36259;SDS011;22296;50.824;5.644;2023-02-03T05:50:33;2.53;;;1.00;;
36259;SDS011;22296;50.824;5.644;2023-02-03T05:53:07;2.78;;;1.10;;
36259;SDS011;22296;50.824;5.644;2023-02-03T05:55:34;3.20;;;0.88;;
36259;SDS011;22296;50.824;5.644;2023-02-03T05:58:02;2.63;;;1.05;;
36259;SDS011;22296;50.824;5.644;2023-02-03T06:00:29;3.40;;;0.90;;
36259;SDS011;22296;50.824;5.644;2023-02-03T06:02:57;1.20;;;0.77;;
36259;SDS011;22296;50.824;5.644;2023-02-03T06:05:28;1.88;;;0.90;;
36259;SDS011;22296;50.824;5.644;2023-02-03T06:07:55;2.65;;;0.90;;
36259;SDS011;22296;50.824;5.644;2023-02-03T06:10:22;1.85;;;0.82;;
36259;SDS011;22296;50.824;5.644;2023-02-03T06:12:49;1.58;;;0.77;;
36259;SDS011;22296;50.824;5.644;2023-02-03T06:15:16;2.63;;;1.05;;
36259;SDS011;22296;50.824;5.644;2023-02-03T06:17:44;1.63;;;0.65;;
36259;SDS011;22296;50.824;5.644;2023-02-03T06:20:13;0.93;;;0.73;;
36259;SDS011;22296;50.824;5.644;2023-02-03T06:22:42;2.90;;;0.70;;
36259;SDS011;22296;50.824;5.644;2023-02-03T06:25:09;1.65;;;0.60;;
36259;SDS011;22296;50.824;5.644;2023-02-03T06:27:38;2.35;;;0.98;;
36259;SDS011;22296;50.824;5.644;2023-02-03T06:30:05;1.52;;;0.75;;
36259;SDS011;22296;50.824;5.644;2023-02-03T06:32:33;2.95;;;0.85;;
36259;SDS011;22296;50.824;5.644;2023-02-03T06:35:00;1.98;;;0.60;;
36259;SDS011;22296;50.824;5.644;2023-02-03T06:37:26;1.70;;;0.65;;
36259;SDS011;22296;50.824;5.644;2023-02-03T06:39:54;1.92;;;0.70;;
36259;SDS011;22296;50.824;5.644;2023-02-03T06:42:21;1.80;;;0.88;;
36259;SDS011;22296;50.824;5.644;2023-02-03T06:44:48;2.00;;;0.88;;
36259;SDS011;22296;50.824;5.644;2023-02-03T06:47:15;2.00;;;0.93;;
36259;SDS011;22296;50.824;5.644;2023-02-03T06:49:42;2.20;;;0.85;;
36259;SDS011;22296;50.824;5.644;2023-02-03T06:52:09;3.45;;;0.70;;
36259;SDS011;22296;50.824;5.644;2023-02-03T06:54:36;1.73;;;0.70;;
36259;SDS011;22296;50.824;5.644;2023-02-03T06:57:03;1.67;;;0.50;;
36259;SDS011;22296;50.824;5.644;2023-02-03T06:59:30;1.30;;;0.80;;
36259;SDS011;22296;50.824;5.644;2023-02-03T07:01:57;0.90;;;0.75;;
36259;SDS011;22296;50.824;5.644;2023-02-03T07:04:24;2.83;;;0.80;;
36259;SDS011;22296;50.824;5.644;2023-02-03T07:06:54;1.85;;;0.60;;
36259;SDS011;22296;50.824;5.644;2023-02-03T07:09:22;1.95;;;0.75;;
36259;SDS011;22296;50.824;5.644;2023-02-03T07:11:49;1.17;;;0.52;;
36259;SDS011;22296;50.824;5.644;2023-02-03T07:14:16;1.52;;;0.60;;
36259;SDS011;22296;50.824;5.644;2023-02-03T07:16:43;1.17;;;0.68;;
36259;SDS011;22296;50.824;5.644;2023-02-03T07:19:10;2.13;;;0.80;;
36259;SDS011;22296;50.824;5.644;2023-02-03T07:21:37;2.70;;;0.77;;
36259;SDS011;22296;50.824;5.644;2023-02-03T07:24:04;3.60;;;0.70;;
36259;SDS011;22296;50.824;5.644;2023-02-03T07:26:31;3.45;;;0.80;;
36259;SDS011;22296;50.824;5.644;2023-02-03T07:28:58;2.97;;;0.70;;
36259;SDS011;22296;50.824;5.644;2023-02-03T07:31:26;1.35;;;0.63;;
36259;SDS011;22296;50.824;5.644;2023-02-03T07:33:53;2.45;;;0.90;;
36259;SDS011;22296;50.824;5.644;2023-02-03T07:36:20;2.00;;;0.90;;
36259;SDS011;22296;50.824;5.644;2023-02-03T07:38:46;1.92;;;0.55;;
36259;SDS011;22296;50.824;5.644;2023-02-03T07:41:13;1.52;;;0.60;;
36259;SDS011;22296;50.824;5.644;2023-02-03T07:43:43;2.40;;;0.68;;
36259;SDS011;22296;50.824;5.644;2023-02-03T07:46:09;1.27;;;0.75;;
36259;SDS011;22296;50.824;5.644;2023-02-03T07:48:36;1.02;;;0.57;;
36259;SDS011;22296;50.824;5.644;2023-02-03T07:51:03;1.30;;;0.45;;
36259;SDS011;22296;50.824;5.644;2023-02-03T07:53:30;2.67;;;0.68;;
36259;SDS011;22296;50.824;5.644;2023-02-03T07:58:27;2.53;;;0.90;;
36259;SDS011;22296;50.824;5.644;2023-02-03T08:00:55;1.63;;;0.57;;
36259;SDS011;22296;50.824;5.644;2023-02-03T08:03:21;1.63;;;0.57;;
36259;SDS011;22296;50.824;5.644;2023-02-03T08:05:48;1.30;;;0.50;;
36259;SDS011;22296;50.824;5.644;2023-02-03T08:08:15;2.45;;;0.50;;
36259;SDS011;22296;50.824;5.644;2023-02-03T08:10:45;2.20;;;0.63;;
36259;SDS011;22296;50.824;5.644;2023-02-03T08:13:12;2.30;;;0.65;;
36259;SDS011;22296;50.824;5.644;2023-02-03T08:15:39;1.35;;;0.50;;
36259;SDS011;22296;50.824;5.644;2023-02-03T08:18:05;2.67;;;0.63;;
36259;SDS011;22296;50.824;5.644;2023-02-03T08:20:34;1.30;;;0.50;;
36259;SDS011;22296;50.824;5.644;2023-02-03T08:23:01;2.50;;;0.60;;
36259;SDS011;22296;50.824;5.644;2023-02-03T08:25:30;2.05;;;0.70;;
36259;SDS011;22296;50.824;5.644;2023-02-03T08:27:58;1.83;;;0.50;;
36259;SDS011;22296;50.824;5.644;2023-02-03T08:30:24;1.00;;;0.70;;
36259;SDS011;22296;50.824;5.644;2023-02-03T08:32:52;1.65;;;0.50;;
36259;SDS011;22296;50.824;5.644;2023-02-03T08:35:19;1.95;;;0.73;;
36259;SDS011;22296;50.824;5.644;2023-02-03T08:37:46;1.23;;;0.50;;
36259;SDS011;22296;50.824;5.644;2023-02-03T08:40:12;1.95;;;0.70;;
36259;SDS011;22296;50.824;5.644;2023-02-03T08:42:39;1.23;;;0.57;;
36259;SDS011;22296;50.824;5.644;2023-02-03T08:45:06;1.77;;;0.70;;
36259;SDS011;22296;50.824;5.644;2023-02-03T08:47:34;1.08;;;0.63;;
36259;SDS011;22296;50.824;5.644;2023-02-03T08:50:06;1.17;;;0.60;;
36259;SDS011;22296;50.824;5.644;2023-02-03T08:52:34;1.98;;;0.60;;
36259;SDS011;22296;50.824;5.644;2023-02-03T08:55:01;2.13;;;0.73;;
36259;SDS011;22296;50.824;5.644;2023-02-03T08:57:32;1.98;;;0.70;;
36259;SDS011;22296;50.824;5.644;2023-02-03T09:00:00;1.17;;;0.60;;
36259;SDS011;22296;50.824;5.644;2023-02-03T09:02:27;1.58;;;0.60;;
36259;SDS011;22296;50.824;5.644;2023-02-03T09:04:54;1.05;;;0.60;;
36259;SDS011;22296;50.824;5.644;2023-02-03T09:07:21;2.28;;;0.70;;
36259;SDS011;22296;50.824;5.644;2023-02-03T09:09:47;2.88;;;0.70;;
36259;SDS011;22296;50.824;5.644;2023-02-03T09:12:14;0.75;;;0.52;;
36259;SDS011;22296;50.824;5.644;2023-02-03T09:14:41;2.22;;;0.57;;
36259;SDS011;22296;50.824;5.644;2023-02-03T09:17:10;5.32;;;0.77;;
36259;SDS011;22296;50.824;5.644;2023-02-03T09:19:37;4.37;;;0.70;;
36259;SDS011;22296;50.824;5.644;2023-02-03T09:22:04;1.95;;;0.63;;
36259;SDS011;22296;50.824;5.644;2023-02-03T09:24:31;4.00;;;0.70;;
36259;SDS011;22296;50.824;5.644;2023-02-03T09:26:58;2.38;;;0.70;;
36259;SDS011;22296;50.824;5.644;2023-02-03T09:29:26;4.30;;;0.80;;
36259;SDS011;22296;50.824;5.644;2023-02-03T09:31:53;2.13;;;0.70;;
36259;SDS011;22296;50.824;5.644;2023-02-03T09:34:20;2.55;;;0.93;;
36259;SDS011;22296;50.824;5.644;2023-02-03T09:36:48;4.07;;;0.68;;
36259;SDS011;22296;50.824;5.644;2023-02-03T09:39:14;2.63;;;0.65;;
36259;SDS011;22296;50.824;5.644;2023-02-03T09:44:36;3.65;;;0.70;;
36259;SDS011;22296;50.824;5.644;2023-02-03T09:47:15;5.80;;;0.73;;
36259;SDS011;22296;50.824;5.644;2023-02-03T09:49:59;3.50;;;0.80;;
36259;SDS011;22296;50.824;5.644;2023-02-03T09:55:00;5.03;;;0.90;;
36259;SDS011;22296;50.824;5.644;2023-02-03T09:57:31;3.65;;;0.73;;
36259;SDS011;22296;50.824;5.644;2023-02-03T10:00:09;3.25;;;0.60;;
36259;SDS011;22296;50.824;5.644;2023-02-03T10:05:39;2.28;;;0.90;;
36259;SDS011;22296;50.824;5.644;2023-02-03T10:14:04;6.63;;;0.90;;
36259;SDS011;22296;50.824;5.644;2023-02-03T10:22:15;1.42;;;0.70;;
36259;SDS011;22296;50.824;5.644;2023-02-03T10:24:48;3.63;;;0.93;;
36259;SDS011;22296;50.824;5.644;2023-02-03T10:27:20;4.90;;;0.75;;
36259;SDS011;22296;50.824;5.644;2023-02-03T10:29:57;3.17;;;0.98;;
36259;SDS011;22296;50.824;5.644;2023-02-03T10:32:28;3.90;;;0.80;;
36259;SDS011;22296;50.824;5.644;2023-02-03T10:34:56;2.28;;;0.60;;
36259;SDS011;22296;50.824;5.644;2023-02-03T10:37:27;1.60;;;0.80;;
36259;SDS011;22296;50.824;5.644;2023-02-03T10:39:56;4.18;;;1.00;;
36259;SDS011;22296;50.824;5.644;2023-02-03T10:42:26;3.05;;;1.15;;
36259;SDS011;22296;50.824;5.644;2023-02-03T10:45:15;3.08;;;0.90;;
36259;SDS011;22296;50.824;5.644;2023-02-03T10:47:44;3.15;;;1.20;;
36259;SDS011;22296;50.824;5.644;2023-02-03T10:50:19;3.13;;;0.93;;
36259;SDS011;22296;50.824;5.644;2023-02-03T10:52:49;2.70;;;1.02;;
36259;SDS011;22296;50.824;5.644;2023-02-03T10:57:48;2.88;;;0.90;;
36259;SDS011;22296;50.824;5.644;2023-02-03T11:00:21;7.00;;;1.30;;
36259;SDS011;22296;50.824;5.644;2023-02-03T11:06:04;2.95;;;1.05;;
36259;SDS011;22296;50.824;5.644;2023-02-03T11:08:49;5.20;;;1.17;;
36259;SDS011;22296;50.824;5.644;2023-02-03T11:11:27;6.90;;;1.70;;
36259;SDS011;22296;50.824;5.644;2023-02-03T11:16:29;4.43;;;1.60;;
36259;SDS011;22296;50.824;5.644;2023-02-03T11:18:59;7.05;;;1.70;;
36259;SDS011;22296;50.824;5.644;2023-02-03T11:24:20;7.30;;;1.65;;
36259;SDS011;22296;50.824;5.644;2023-02-03T11:27:05;5.10;;;1.70;;
36259;SDS011;22296;50.824;5.644;2023-02-03T11:29:45;5.60;;;1.77;;
36259;SDS011;22296;50.824;5.644;2023-02-03T11:32:21;5.95;;;1.80;;
36259;SDS011;22296;50.824;5.644;2023-02-03T11:35:01;3.67;;;1.50;;
36259;SDS011;22296;50.824;5.644;2023-02-03T11:38:08;5.70;;;2.00;;
36259;SDS011;22296;50.824;5.644;2023-02-03T11:41:15;6.43;;;1.90;;
36259;SDS011;22296;50.824;5.644;2023-02-03T11:43:57;3.92;;;1.33;;
36259;SDS011;22296;50.824;5.644;2023-02-03T11:46:24;4.30;;;1.45;;
36259;SDS011;22296;50.824;5.644;2023-02-03T11:55:32;4.05;;;1.48;;
36259;SDS011;22296;50.824;5.644;2023-02-03T11:58:36;4.32;;;1.23;;
36259;SDS011;22296;50.824;5.644;2023-02-03T12:09:36;4.70;;;1.52;;
36259;SDS011;22296;50.824;5.644;2023-02-03T12:15:55;3.60;;;1.30;;
36259;SDS011;22296;50.824;5.644;2023-02-03T12:24:08;3.60;;;1.40;;
36259;SDS011;22296;50.824;5.644;2023-02-03T12:29:21;4.15;;;1.17;;
36259;SDS011;22296;50.824;5.644;2023-02-03T12:34:44;3.25;;;1.60;;
36259;SDS011;22296;50.824;5.644;2023-02-03T12:39:51;3.00;;;1.10;;
36259;SDS011;22296;50.824;5.644;2023-02-03T12:42:29;2.47;;;1.33;;
36259;SDS011;22296;50.824;5.644;2023-02-03T12:50:13;3.00;;;1.27;;
36259;SDS011;22296;50.824;5.644;2023-02-03T12:52:46;2.38;;;1.10;;
36259;SDS011;22296;50.824;5.644;2023-02-03T12:55:20;3.78;;;1.20;;
36259;SDS011;22296;50.824;5.644;2023-02-03T12:58:01;2.92;;;1.10;;
36259;SDS011;22296;50.824;5.644;2023-02-03T13:06:11;4.07;;;1.00;;
36259;SDS011;22296;50.824;5.644;2023-02-03T13:14:19;2.65;;;1.00;;
36259;SDS011;22296;50.824;5.644;2023-02-03T13:16:58;3.63;;;1.00;;
36259;SDS011;22296;50.824;5.644;2023-02-03T13:19:40;3.33;;;1.20;;
36259;SDS011;22296;50.824;5.644;2023-02-03T13:22:12;3.38;;;1.00;;
36259;SDS011;22296;50.824;5.644;2023-02-03T13:24:42;2.05;;;1.02;;
36259;SDS011;22296;50.824;5.644;2023-02-03T13:44:10;3.05;;;1.35;;
36259;SDS011;22296;50.824;5.644;2023-02-03T13:46:40;2.97;;;1.58;;
36259;SDS011;22296;50.824;5.644;2023-02-03T13:49:15;3.20;;;1.45;;
36259;SDS011;22296;50.824;5.644;2023-02-03T13:51:52;3.55;;;1.58;;
36259;SDS011;22296;50.824;5.644;2023-02-03T13:54:33;3.42;;;1.48;;
36259;SDS011;22296;50.824;5.644;2023-02-03T14:00:00;3.08;;;1.90;;
36259;SDS011;22296;50.824;5.644;2023-02-03T14:02:42;2.58;;;1.40;;
36259;SDS011;22296;50.824;5.644;2023-02-03T14:16:43;3.90;;;1.55;;
36259;SDS011;22296;50.824;5.644;2023-02-03T14:21:48;4.65;;;1.40;;
36259;SDS011;22296;50.824;5.644;2023-02-03T14:24:20;5.45;;;1.27;;
36259;SDS011;22296;50.824;5.644;2023-02-03T14:26:49;3.88;;;1.50;;
36259;SDS011;22296;50.824;5.644;2023-02-03T14:29:28;3.53;;;1.60;;
36259;SDS011;22296;50.824;5.644;2023-02-03T14:37:20;5.88;;;1.55;;
36259;SDS011;22296;50.824;5.644;2023-02-03T14:57:22;3.47;;;1.30;;
36259;SDS011;22296;50.824;5.644;2023-02-03T14:59:56;3.25;;;1.52;;
36259;SDS011;22296;50.824;5.644;2023-02-03T15:02:31;3.73;;;1.53;;
36259;SDS011;22296;50.824;5.644;2023-02-03T15:10:16;4.43;;;1.50;;
36259;SDS011;22296;50.824;5.644;2023-02-03T15:12:52;4.60;;;1.77;;
36259;SDS011;22296;50.824;5.644;2023-02-03T15:15:30;6.35;;;1.85;;
36259;SDS011;22296;50.824;5.644;2023-02-03T15:18:18;6.18;;;1.40;;
36259;SDS011;22296;50.824;5.644;2023-02-03T15:20:51;5.25;;;1.90;;
36259;SDS011;22296;50.824;5.644;2023-02-03T15:23:20;6.05;;;1.48;;
36259;SDS011;22296;50.824;5.644;2023-02-03T15:28:25;6.88;;;1.75;;
36259;SDS011;22296;50.824;5.644;2023-02-03T15:31:01;4.90;;;1.70;;
36259;SDS011;22296;50.824;5.644;2023-02-03T15:33:34;5.80;;;1.60;;
36259;SDS011;22296;50.824;5.644;2023-02-03T15:38:56;5.57;;;1.85;;
36259;SDS011;22296;50.824;5.644;2023-02-03T15:41:31;4.28;;;1.80;;
36259;SDS011;22296;50.824;5.644;2023-02-03T15:44:01;4.55;;;1.60;;
36259;SDS011;22296;50.824;5.644;2023-02-03T15:49:13;3.55;;;1.60;;
36259;SDS011;22296;50.824;5.644;2023-02-03T15:54:30;4.10;;;1.40;;
36259;SDS011;22296;50.824;5.644;2023-02-03T15:57:10;5.72;;;1.42;;
36259;SDS011;22296;50.824;5.644;2023-02-03T15:59:40;4.10;;;1.33;;
36259;SDS011;22296;50.824;5.644;2023-02-03T16:02:33;5.53;;;1.70;;
36259;SDS011;22296;50.824;5.644;2023-02-03T16:07:52;5.72;;;1.70;;
36259;SDS011;22296;50.824;5.644;2023-02-03T16:13:17;6.72;;;1.73;;
36259;SDS011;22296;50.824;5.644;2023-02-03T16:15:56;2.42;;;1.55;;
36259;SDS011;22296;50.824;5.644;2023-02-03T16:18:29;3.63;;;1.45;;
36259;SDS011;22296;50.824;5.644;2023-02-03T16:20:56;5.45;;;1.73;;
36259;SDS011;22296;50.824;5.644;2023-02-03T16:23:25;6.63;;;1.92;;
36259;SDS011;22296;50.824;5.644;2023-02-03T16:28:27;5.35;;;1.50;;
36259;SDS011;22296;50.824;5.644;2023-02-03T16:34:04;4.03;;;1.45;;
36259;SDS011;22296;50.824;5.644;2023-02-03T16:37:19;2.72;;;1.67;;
36259;SDS011;22296;50.824;5.644;2023-02-03T16:40:09;7.43;;;1.88;;
36259;SDS011;22296;50.824;5.644;2023-02-03T16:42:56;7.65;;;1.90;;
36259;SDS011;22296;50.824;5.644;2023-02-03T16:45:41;4.35;;;1.98;;
36259;SDS011;22296;50.824;5.644;2023-02-03T16:48:27;2.97;;;1.67;;
36259;SDS011;22296;50.824;5.644;2023-02-03T16:51:14;4.55;;;1.90;;
36259;SDS011;22296;50.824;5.644;2023-02-03T16:53:43;4.20;;;1.60;;
36259;SDS011;22296;50.824;5.644;2023-02-03T16:56:11;4.67;;;1.90;;
36259;SDS011;22296;50.824;5.644;2023-02-03T16:58:39;3.63;;;1.70;;
36259;SDS011;22296;50.824;5.644;2023-02-03T17:01:06;7.30;;;1.95;;
36259;SDS011;22296;50.824;5.644;2023-02-03T17:03:35;3.78;;;1.75;;
36259;SDS011;22296;50.824;5.644;2023-02-03T17:06:09;2.90;;;1.70;;
36259;SDS011;22296;50.824;5.644;2023-02-03T17:08:37;5.50;;;1.92;;
36259;SDS011;22296;50.824;5.644;2023-02-03T17:11:13;6.68;;;1.90;;
36259;SDS011;22296;50.824;5.644;2023-02-03T17:13:42;3.65;;;1.92;;
36259;SDS011;22296;50.824;5.644;2023-02-03T17:16:14;4.20;;;1.77;;
36259;SDS011;22296;50.824;5.644;2023-02-03T17:18:43;4.28;;;1.83;;
36259;SDS011;22296;50.824;5.644;2023-02-03T17:21:18;3.67;;;1.70;;
36259;SDS011;22296;50.824;5.644;2023-02-03T17:23:50;6.32;;;1.70;;
36259;SDS011;22296;50.824;5.644;2023-02-03T17:26:17;4.20;;;2.35;;
36259;SDS011;22296;50.824;5.644;2023-02-03T17:28:44;5.03;;;1.73;;
36259;SDS011;22296;50.824;5.644;2023-02-03T17:31:15;4.25;;;2.03;;
36259;SDS011;22296;50.824;5.644;2023-02-03T17:33:44;3.63;;;1.70;;
36259;SDS011;22296;50.824;5.644;2023-02-03T17:36:12;5.07;;;1.60;;
36259;SDS011;22296;50.824;5.644;2023-02-03T17:38:42;3.63;;;1.92;;
36259;SDS011;22296;50.824;5.644;2023-02-03T17:41:28;2.88;;;1.67;;
36259;SDS011;22296;50.824;5.644;2023-02-03T17:44:13;1.70;;;1.15;;
36259;SDS011;22296;50.824;5.644;2023-02-03T17:46:57;3.28;;;1.80;;
36259;SDS011;22296;50.824;5.644;2023-02-03T17:49:41;7.03;;;2.40;;
36259;SDS011;22296;50.824;5.644;2023-02-03T17:52:27;2.60;;;1.92;;
36259;SDS011;22296;50.824;5.644;2023-02-03T17:55:11;3.60;;;1.73;;
36259;SDS011;22296;50.824;5.644;2023-02-03T17:57:38;3.53;;;1.60;;
36259;SDS011;22296;50.824;5.644;2023-02-03T18:00:05;3.42;;;1.67;;
36259;SDS011;22296;50.824;5.644;2023-02-03T18:02:37;3.13;;;1.60;;
36259;SDS011;22296;50.824;5.644;2023-02-03T18:05:05;3.88;;;1.75;;
36259;SDS011;22296;50.824;5.644;2023-02-03T18:07:32;3.67;;;1.67;;
36259;SDS011;22296;50.824;5.644;2023-02-03T18:09:59;4.70;;;2.05;;
36259;SDS011;22296;50.824;5.644;2023-02-03T18:12:26;3.40;;;1.67;;
36259;SDS011;22296;50.824;5.644;2023-02-03T18:14:52;5.03;;;1.50;;
36259;SDS011;22296;50.824;5.644;2023-02-03T18:17:19;3.25;;;1.55;;
36259;SDS011;22296;50.824;5.644;2023-02-03T18:19:46;4.63;;;1.75;;
36259;SDS011;22296;50.824;5.644;2023-02-03T18:22:21;2.95;;;1.73;;
36259;SDS011;22296;50.824;5.644;2023-02-03T18:24:47;4.10;;;1.40;;
36259;SDS011;22296;50.824;5.644;2023-02-03T18:27:18;2.53;;;1.70;;